createdAt,value
2023-01-02T00:00:29.912Z,31.352000
2023-01-02T00:05:33.859Z,31.280000
2023-01-02T00:10:35.403Z,31.160000
2023-01-02T00:15:18.361Z,31.100000
2023-01-02T00:20:23.830Z,31.100000
2023-01-02T00:25:26.862Z,30.956000
2023-01-02T00:30:32.438Z,30.992000
2023-01-02T00:35:31.574Z,30.920000
2023-01-02T00:40:35.348Z,30.920000
2023-01-02T00:45:18.928Z,30.920000
2023-01-02T00:50:21.561Z,30.920000
2023-01-02T00:55:24.405Z,30.884000
2023-01-02T01:00:27.041Z,30.740000
2023-01-02T01:05:29.577Z,30.764000
2023-01-02T01:10:33.541Z,30.740000
2023-01-02T01:15:36.370Z,30.860000
2023-01-02T01:20:19.194Z,30.920000
2023-01-02T01:25:21.210Z,30.980000
2023-01-02T01:30:23.290Z,30.920000
2023-01-02T01:35:27.318Z,30.920000
2023-01-02T01:40:28.796Z,30.872000
2023-01-02T01:45:31.699Z,30.920000
2023-01-02T01:50:34.718Z,30.920000
2023-01-02T01:55:17.665Z,30.920000
2023-01-02T02:00:20.315Z,30.848000
2023-01-02T02:05:23.157Z,30.830000
2023-01-02T02:10:27.799Z,30.740000
2023-01-02T02:15:29.022Z,30.740000
2023-01-02T02:20:33.950Z,30.740000
2023-01-02T02:25:35.399Z,30.740000
2023-01-02T02:30:18.417Z,30.632000
2023-01-02T02:35:21.447Z,30.608000
2023-01-02T02:40:24.405Z,30.624286
2023-01-02T02:45:28.244Z,30.560000
2023-01-02T02:50:30.459Z,30.560000
2023-01-02T02:55:33.979Z,30.560000
2023-01-02T03:00:36.673Z,30.728000
2023-01-02T03:05:19.051Z,30.740000
2023-01-02T03:10:22.414Z,30.824000
2023-01-02T03:15:24.234Z,31.061429
2023-01-02T03:20:27.348Z,31.196000
2023-01-02T03:25:30.080Z,31.148000
2023-01-02T03:30:33.377Z,31.160000
2023-01-02T03:35:16.501Z,31.280000
2023-01-02T03:40:19.200Z,31.280000
2023-01-02T03:45:21.329Z,31.460000
2023-01-02T03:50:24.184Z,31.627143
2023-01-02T03:55:26.690Z,31.820000
2023-01-02T04:00:30.799Z,32.120000
2023-01-02T04:05:32.084Z,32.276000
2023-01-02T04:10:35.213Z,32.276000
2023-01-02T04:15:17.324Z,32.360000
2023-01-02T04:20:21.986Z,32.360000
2023-01-02T04:25:24.564Z,32.360000
2023-01-02T04:30:27.446Z,32.264000
2023-01-02T04:35:30.188Z,32.180000
2023-01-02T04:40:33.133Z,32.084000
2023-01-02T04:45:16.117Z,31.844000
2023-01-02T04:50:20.134Z,31.976000
2023-01-02T04:55:21.805Z,32.000000
2023-01-02T05:00:25.205Z,32.000000
2023-01-02T05:05:29.195Z,32.084000
2023-01-02T05:10:33.267Z,32.180000
2023-01-02T05:15:17.707Z,32.180000
2023-01-02T05:20:21.368Z,32.192000
2023-01-02T05:25:25.032Z,32.360000
2023-01-02T05:30:29.842Z,32.252000
2023-01-02T05:35:33.601Z,31.820000
2023-01-02T05:40:34.986Z,31.532000
2023-01-02T05:45:19.132Z,31.340000
2023-01-02T05:50:22.931Z,31.280000
2023-01-02T05:55:26.234Z,31.256000
2023-01-02T06:00:30.551Z,31.220000
2023-01-02T06:05:35.396Z,31.280000
2023-01-02T06:10:20.158Z,31.280000
2023-01-02T06:15:26.937Z,31.164286
2023-01-02T06:20:31.516Z,31.184000
2023-01-02T06:25:36.471Z,31.280000
2023-01-02T06:30:21.924Z,31.112000
2023-01-02T06:35:26.286Z,31.138571
2023-01-02T06:40:31.235Z,31.124000
2023-01-02T06:45:34.442Z,31.100000
2023-01-02T06:50:17.628Z,31.004000
2023-01-02T06:55:23.153Z,30.956000
2023-01-02T07:00:25.638Z,30.997143
2023-01-02T07:05:32.781Z,30.920000
2023-01-02T07:10:18.947Z,30.788000
2023-01-02T07:15:23.173Z,30.572857
2023-01-02T07:20:29.089Z,30.668000
2023-01-02T07:25:42.420Z,30.872000
2023-01-02T07:30:21.467Z,30.896000
2023-01-02T07:35:24.002Z,30.675714
2023-01-02T07:40:32.155Z,30.452000
2023-01-02T07:45:33.566Z,30.512000
2023-01-02T07:50:17.164Z,30.560000
2023-01-02T07:55:21.514Z,30.560000
2023-01-02T08:00:25.045Z,30.560000
2023-01-02T08:05:28.377Z,30.584000
2023-01-02T08:10:31.857Z,30.740000
2023-01-02T08:15:35.431Z,30.560000
2023-01-02T08:20:17.975Z,30.272000
2023-01-02T08:25:22.453Z,30.176000
2023-01-02T08:30:25.044Z,30.315714
2023-01-02T08:35:38.443Z,30.488000
2023-01-02T08:40:34.414Z,30.080000
2023-01-02T08:45:16.633Z,30.020000
2023-01-02T08:50:20.283Z,29.864000
2023-01-02T08:55:26.606Z,29.685714
2023-01-02T09:00:28.901Z,29.660000
2023-01-02T09:05:32.529Z,29.660000
2023-01-02T09:10:35.941Z,29.660000
2023-01-02T09:15:18.517Z,29.660000
2023-01-02T09:20:21.700Z,29.660000
2023-01-02T09:25:24.894Z,29.660000
2023-01-02T09:30:28.818Z,29.660000
2023-01-02T09:35:31.463Z,29.804000
2023-01-02T09:40:34.460Z,29.840000
2023-01-02T09:45:17.643Z,29.840000
2023-01-02T09:50:21.846Z,29.696000
2023-01-02T09:55:25.728Z,29.660000
2023-01-02T10:00:29.157Z,29.480000
2023-01-02T10:05:32.396Z,29.480000
2023-01-02T10:10:35.484Z,29.480000
2023-01-02T10:15:19.131Z,29.480000
2023-01-02T10:20:24.488Z,29.325714
2023-01-02T10:25:26.667Z,29.444000
2023-01-02T10:30:30.068Z,29.396000
2023-01-02T10:35:32.932Z,29.300000
2023-01-02T10:40:16.045Z,29.264000
2023-01-02T10:45:19.608Z,29.156000
2023-01-02T10:50:22.656Z,29.300000
2023-01-02T10:55:25.676Z,29.468000
2023-01-02T11:00:28.887Z,29.480000
2023-01-02T11:05:31.713Z,29.456000
2023-01-02T11:10:34.658Z,29.300000
2023-01-02T11:15:18.134Z,29.144000
2023-01-02T11:20:21.731Z,29.072000
2023-01-02T11:25:25.060Z,28.940000
2023-01-02T11:30:28.261Z,28.904000
2023-01-02T11:35:30.920Z,28.760000
2023-01-02T11:40:34.107Z,28.940000
2023-01-02T11:45:17.238Z,28.940000
2023-01-02T11:50:24.872Z,28.940000
2023-01-02T11:55:28.218Z,29.084000
2023-01-02T12:00:28.947Z,29.156000
2023-01-02T12:05:32.345Z,29.300000
2023-01-02T12:10:35.777Z,29.492000
2023-01-02T12:15:19.518Z,29.792000
2023-01-02T12:20:23.335Z,29.724286
2023-01-02T12:25:26.824Z,29.660000
2023-01-02T12:30:29.727Z,29.708000
2023-01-02T12:35:34.162Z,29.444000
2023-01-02T12:40:35.769Z,29.300000
2023-01-02T12:45:18.263Z,29.168000
2023-01-02T12:50:21.240Z,29.055714
2023-01-02T12:55:24.901Z,28.940000
2023-01-02T13:00:27.829Z,28.940000
2023-01-02T13:05:31.521Z,28.940000
2023-01-02T13:10:34.549Z,28.868000
2023-01-02T13:15:16.969Z,28.940000
2023-01-02T13:20:20.149Z,28.988000
2023-01-02T13:25:23.247Z,29.120000
2023-01-02T13:30:27.163Z,29.024000
2023-01-02T13:35:28.633Z,29.096000
2023-01-02T13:40:31.111Z,29.300000
2023-01-02T13:45:34.149Z,29.300000
2023-01-02T13:50:18.605Z,29.204000
2023-01-02T13:55:22.032Z,29.055714
2023-01-02T14:00:26.691Z,28.868000
2023-01-02T14:05:27.571Z,29.000000
2023-01-02T14:10:30.743Z,29.204000
2023-01-02T14:15:35.025Z,29.300000
2023-01-02T14:20:17.040Z,29.300000
2023-01-02T14:25:21.540Z,29.300000
2023-01-02T14:30:25.082Z,29.300000
2023-01-02T14:35:29.323Z,29.276000
2023-01-02T14:40:32.488Z,29.120000
2023-01-02T14:45:36.297Z,29.228000
2023-01-02T14:50:18.958Z,29.120000
2023-01-02T14:55:23.616Z,29.235714
2023-01-02T15:00:28.622Z,29.300000
2023-01-02T15:05:30.494Z,29.456000
2023-01-02T15:10:34.180Z,29.420000
2023-01-02T15:15:18.032Z,29.192000
2023-01-02T15:20:23.224Z,28.964000
2023-01-02T15:25:25.548Z,29.042857
2023-01-02T15:30:29.653Z,29.264000
2023-01-02T15:35:33.613Z,29.444000
2023-01-02T15:40:35.331Z,29.684000
2023-01-02T15:45:19.545Z,29.840000
2023-01-02T15:50:21.969Z,29.744000
2023-01-02T15:55:25.532Z,29.685714
2023-01-02T16:00:28.396Z,29.840000
2023-01-02T16:05:33.829Z,29.840000
2023-01-02T16:10:16.073Z,29.840000
2023-01-02T16:15:19.554Z,29.840000
2023-01-02T16:20:23.250Z,29.724286
2023-01-02T16:25:27.757Z,29.384000
2023-01-02T16:30:30.281Z,29.132000
2023-01-02T16:35:33.452Z,29.300000
2023-01-02T16:40:17.236Z,29.300000
2023-01-02T16:45:20.630Z,29.456000
2023-01-02T16:50:23.952Z,29.480000
2023-01-02T16:55:26.997Z,29.300000
2023-01-02T17:00:30.087Z,29.468000
2023-01-02T17:05:33.443Z,29.564000
2023-01-02T17:10:18.051Z,29.660000
2023-01-02T17:15:20.659Z,29.660000
2023-01-02T17:20:25.182Z,29.724286
2023-01-02T17:25:26.447Z,29.972000
2023-01-02T17:30:29.437Z,30.020000
2023-01-02T17:35:33.381Z,30.020000
2023-01-02T17:40:35.161Z,30.200000
2023-01-02T17:45:17.731Z,30.200000
2023-01-02T17:50:20.605Z,30.272000
2023-01-02T17:55:24.608Z,30.380000
2023-01-02T18:00:26.966Z,30.512000
2023-01-02T18:05:29.657Z,30.740000
2023-01-02T18:10:33.664Z,30.836000
2023-01-02T18:15:15.956Z,30.764000
2023-01-02T18:20:18.936Z,30.860000
2023-01-02T18:25:21.659Z,30.740000
2023-01-02T18:30:25.180Z,30.855714
2023-01-02T18:35:59.332Z,30.752000
2023-01-02T18:40:30.612Z,30.860000
2023-01-02T18:45:34.181Z,30.884000
2023-01-02T18:50:23.405Z,31.040000
2023-01-02T18:55:19.578Z,30.968000
2023-01-02T19:00:22.338Z,31.215714
2023-01-02T19:05:25.531Z,31.136000
2023-01-02T19:10:34.486Z,31.136000
2023-01-02T19:15:30.377Z,31.136000
2023-01-02T19:20:33.305Z,30.920000
2023-01-02T19:25:16.602Z,30.728000
2023-01-02T19:30:20.882Z,30.632000
2023-01-02T19:35:22.984Z,30.560000
2023-01-02T19:40:24.731Z,30.727143
2023-01-02T19:45:27.673Z,30.740000
2023-01-02T19:50:30.853Z,30.728000
2023-01-02T19:55:33.314Z,30.704000
2023-01-02T20:00:16.011Z,30.692000
2023-01-02T20:05:21.837Z,30.776000
2023-01-02T20:10:21.703Z,31.100000
2023-01-02T20:15:24.021Z,30.945714
2023-01-02T20:20:27.236Z,30.692000
2023-01-02T20:25:30.553Z,30.416000
2023-01-02T20:30:33.622Z,30.560000
2023-01-02T20:35:16.993Z,30.476000
2023-01-02T20:40:20.348Z,30.572000
2023-01-02T20:45:24.629Z,30.637143
2023-01-02T20:50:26.379Z,30.296000
2023-01-02T20:55:29.504Z,30.200000
2023-01-02T21:00:32.834Z,30.344000
2023-01-02T21:05:36.009Z,30.380000
2023-01-02T21:10:18.393Z,30.404000
2023-01-02T21:15:21.362Z,30.428000
2023-01-02T21:20:24.265Z,30.508571
2023-01-02T21:25:27.227Z,30.560000
2023-01-02T21:30:30.633Z,30.620000
2023-01-02T21:35:33.285Z,30.740000
2023-01-02T21:40:16.132Z,30.740000
2023-01-02T21:45:19.138Z,30.740000
2023-01-02T21:50:22.138Z,30.836000
2023-01-02T21:55:24.798Z,30.470000
2023-01-02T22:00:27.954Z,30.560000
2023-01-02T22:05:30.954Z,30.488000
2023-01-02T22:10:34.158Z,30.320000
2023-01-02T22:15:18.496Z,30.200000
2023-01-02T22:20:21.981Z,30.044000
2023-01-02T22:25:23.100Z,29.840000
2023-01-02T22:30:33.878Z,29.840000
2023-01-02T22:35:29.921Z,29.972000
2023-01-02T22:40:31.481Z,30.020000
2023-01-02T22:45:35.061Z,30.080000
2023-01-02T22:50:16.825Z,30.200000
2023-01-02T22:55:20.787Z,30.152000
2023-01-02T23:00:24.385Z,30.020000
2023-01-02T23:05:26.944Z,29.900000
2023-01-02T23:10:30.114Z,29.792000
2023-01-02T23:15:32.229Z,29.528000
2023-01-02T23:20:34.677Z,29.660000
2023-01-02T23:25:17.180Z,29.828000
2023-01-02T23:30:20.636Z,29.660000
2023-01-02T23:35:23.802Z,29.505714
2023-01-02T23:40:33.856Z,29.408000
2023-01-02T23:45:32.246Z,29.480000
2023-01-02T23:50:34.864Z,29.324000
2023-01-02T23:55:18.196Z,29.456000
